<?xml version='1.0' encoding='UTF-8'?>
<gpx xmlns="http://www.topografix.com/GPX/1/1" creator="www.balnam.be" version="1.1" xmlns:xsi="http://www.w3.org/2001/XMLSchema-instance" xsi:schemaLocation="http://www.topografix.com/GPX/1/1 http://www.topografix.com/GPX/1/1/gpx.xsd">
<trk>
<name>xhbali3</name>
<cmt>v</cmt>
<desc>Anlier Chemin n°i3 Chaussée romaine / Chaussée Romaine</desc>
<link href="https://chemins.be/anlier/chemin/i3"/><trkseg>
<trkpt lat="49.795532" lon="5.735569"><time>2026-05-03T03:56:53Z</time></trkpt>
<trkpt lat="49.795578" lon="5.735529"><time>2026-05-03T04:06:53Z</time></trkpt>
<trkpt lat="49.795659" lon="5.735475"><time>2026-05-03T04:16:53Z</time></trkpt>
<trkpt lat="49.796055" lon="5.735501"><time>2026-05-03T04:26:53Z</time></trkpt>
<trkpt lat="49.796199" lon="5.735463"><time>2026-05-03T04:36:53Z</time></trkpt>
<trkpt lat="49.796362" lon="5.735343"><time>2026-05-03T04:46:53Z</time></trkpt>
<trkpt lat="49.797493" lon="5.734055"><time>2026-05-03T04:56:53Z</time></trkpt>
<trkpt lat="49.799538" lon="5.731474"><time>2026-05-03T05:06:53Z</time></trkpt>
<trkpt lat="49.799765" lon="5.731286"><time>2026-05-03T05:16:53Z</time></trkpt>
<trkpt lat="49.800870" lon="5.730553"><time>2026-05-03T05:26:53Z</time></trkpt>
<trkpt lat="49.802871" lon="5.729443"><time>2026-05-03T05:36:53Z</time></trkpt>
<trkpt lat="49.803522" lon="5.729141"><time>2026-05-03T05:46:53Z</time></trkpt>
<trkpt lat="49.803837" lon="5.729095"><time>2026-05-03T05:56:53Z</time></trkpt>
<trkpt lat="49.804308" lon="5.728803"><time>2026-05-03T06:06:53Z</time></trkpt>
<trkpt lat="49.805400" lon="5.727694"><time>2026-05-03T06:16:53Z</time></trkpt>
<trkpt lat="49.805927" lon="5.727306"><time>2026-05-03T06:26:53Z</time></trkpt>
<trkpt lat="49.806241" lon="5.726592"><time>2026-05-03T06:36:53Z</time></trkpt>
<trkpt lat="49.806397" lon="5.726291"><time>2026-05-03T06:46:53Z</time></trkpt>
<trkpt lat="49.806939" lon="5.725376"><time>2026-05-03T06:56:53Z</time></trkpt>
<trkpt lat="49.807231" lon="5.724476"><time>2026-05-03T07:06:53Z</time></trkpt>
<trkpt lat="49.807944" lon="5.723223"><time>2026-05-03T07:16:53Z</time></trkpt>
<trkpt lat="49.809448" lon="5.720736"><time>2026-05-03T07:26:53Z</time></trkpt>
<trkpt lat="49.810005" lon="5.720001"><time>2026-05-03T07:36:53Z</time></trkpt>
<trkpt lat="49.810343" lon="5.719622"><time>2026-05-03T07:46:53Z</time></trkpt>
<trkpt lat="49.811510" lon="5.718960"><time>2026-05-03T07:56:53Z</time></trkpt>
<trkpt lat="49.812475" lon="5.718751"><time>2026-05-03T08:06:53Z</time></trkpt>
<trkpt lat="49.813145" lon="5.718380"><time>2026-05-03T08:16:53Z</time></trkpt>
<trkpt lat="49.813926" lon="5.717680"><time>2026-05-03T08:26:53Z</time></trkpt>
<trkpt lat="49.814391" lon="5.717165"><time>2026-05-03T08:36:53Z</time></trkpt>
<trkpt lat="49.815328" lon="5.715955"><time>2026-05-03T08:46:53Z</time></trkpt>
<trkpt lat="49.818518" lon="5.711612"><time>2026-05-03T08:56:53Z</time></trkpt>
<trkpt lat="49.819803" lon="5.707406"><time>2026-05-03T09:06:53Z</time></trkpt>
</trkseg>
</trk>
</gpx>